createdAt,value
2018-07-20T00:01:30.971Z,7.23
2018-07-20T00:03:59.208Z,7.63
2018-07-20T00:06:27.474Z,7.00
2018-07-20T00:08:55.786Z,7.10
2018-07-20T00:11:23.950Z,7.53
2018-07-20T00:13:52.550Z,6.83
2018-07-20T00:16:20.782Z,7.57
2018-07-20T00:18:49.009Z,8.27
2018-07-20T00:21:17.230Z,7.37
2018-07-20T00:23:45.387Z,7.33
2018-07-20T00:26:13.651Z,7.20
2018-07-20T00:28:41.777Z,7.17
2018-07-20T00:31:10.045Z,7.07
2018-07-20T00:33:38.285Z,7.47
2018-07-20T00:36:06.465Z,7.07
2018-07-20T00:38:34.653Z,6.63
2018-07-20T00:41:02.810Z,7.37
2018-07-20T00:43:30.973Z,7.20
2018-07-20T00:45:59.136Z,8.20
2018-07-20T00:48:27.293Z,8.20
2018-07-20T00:50:55.514Z,7.00
2018-07-20T00:53:23.712Z,7.47
2018-07-20T00:55:51.878Z,7.83
2018-07-20T00:58:20.147Z,7.60
2018-07-20T01:00:48.402Z,8.60
2018-07-20T01:03:16.685Z,8.37
2018-07-20T01:05:44.963Z,8.37
2018-07-20T01:08:13.146Z,7.63
2018-07-20T01:10:41.307Z,8.10
2018-07-20T01:13:09.494Z,7.97
2018-07-20T01:15:37.764Z,8.10
2018-07-20T01:18:06.028Z,7.80
2018-07-20T01:20:34.194Z,7.20
2018-07-20T01:23:02.717Z,8.03
2018-07-20T01:25:30.881Z,7.10
2018-07-20T01:27:59.152Z,7.80
2018-07-20T01:30:27.316Z,7.77
2018-07-20T01:32:55.474Z,8.07
2018-07-20T01:35:23.719Z,8.50
2018-07-20T01:37:52.167Z,8.03
2018-07-20T01:40:20.319Z,7.30
2018-07-20T01:42:48.547Z,7.60
2018-07-20T01:45:16.711Z,7.60
2018-07-20T01:47:44.997Z,8.27
2018-07-20T01:50:13.226Z,7.20
2018-07-20T01:52:41.490Z,7.73
2018-07-20T01:55:09.719Z,7.97
2018-07-20T01:57:37.890Z,8.20
2018-07-20T02:00:06.134Z,7.63
2018-07-20T02:02:34.280Z,8.10
2018-07-20T02:05:02.499Z,7.73
2018-07-20T02:07:30.664Z,7.27
2018-07-20T02:09:58.832Z,7.70
2018-07-20T02:12:27.023Z,7.73
2018-07-20T02:14:55.182Z,8.03
2018-07-20T02:17:23.430Z,7.93
2018-07-20T02:19:51.614Z,7.80
2018-07-20T02:22:19.781Z,8.17
2018-07-20T02:24:47.966Z,7.93
2018-07-20T02:27:16.181Z,7.83
2018-07-20T02:29:44.437Z,7.50
2018-07-20T02:32:12.893Z,7.50
2018-07-20T02:34:41.146Z,7.73
2018-07-20T02:37:09.457Z,8.43
2018-07-20T02:39:37.938Z,7.90
2018-07-20T02:42:06.104Z,7.80
2018-07-20T02:44:34.269Z,8.13
2018-07-20T02:47:02.557Z,8.20
2018-07-20T02:49:30.981Z,9.13
2018-07-20T02:51:59.372Z,9.37
2018-07-20T02:54:27.538Z,8.40
2018-07-20T02:56:55.702Z,9.00
2018-07-20T02:59:23.863Z,8.40
2018-07-20T03:01:52.203Z,9.73
2018-07-20T03:04:20.391Z,9.00
2018-07-20T03:06:48.670Z,9.03
2018-07-20T03:09:16.834Z,9.17
2018-07-20T03:11:45.041Z,9.73
2018-07-20T03:14:13.207Z,9.13
2018-07-20T03:16:41.459Z,8.00
2018-07-20T03:19:09.904Z,8.60
2018-07-20T03:21:38.086Z,10.23
2018-07-20T03:24:06.306Z,8.87
2018-07-20T03:26:34.482Z,9.50
2018-07-20T03:29:02.680Z,9.20
2018-07-20T03:31:30.842Z,10.20
2018-07-20T03:33:59.018Z,9.60
2018-07-20T03:36:27.178Z,9.93
2018-07-20T03:38:55.433Z,10.33
2018-07-20T03:41:23.605Z,9.70
2018-07-20T03:43:51.761Z,9.47
2018-07-20T03:46:19.917Z,9.77
2018-07-20T03:48:48.139Z,9.30
2018-07-20T03:51:16.313Z,9.43
2018-07-20T03:53:44.581Z,10.03
2018-07-20T03:56:12.869Z,9.40
2018-07-20T03:58:41.151Z,9.27
2018-07-20T04:01:09.357Z,8.80
2018-07-20T04:03:37.537Z,8.47
2018-07-20T04:06:05.961Z,8.90
2018-07-20T04:08:34.137Z,9.33
2018-07-20T04:11:02.465Z,8.83
2018-07-20T04:13:30.613Z,8.40
2018-07-20T04:15:58.880Z,8.20
2018-07-20T04:18:27.075Z,8.87
2018-07-20T04:20:55.236Z,8.97
2018-07-20T04:23:23.609Z,10.10
2018-07-20T04:25:51.804Z,9.70
2018-07-20T04:28:19.961Z,9.03
2018-07-20T04:30:48.206Z,8.47
2018-07-20T04:33:16.389Z,9.27
2018-07-20T04:35:44.550Z,9.50
2018-07-20T04:38:12.752Z,9.43
2018-07-20T04:40:40.889Z,9.73
2018-07-20T04:43:09.306Z,9.53
2018-07-20T04:45:37.569Z,11.83
2018-07-20T04:48:05.958Z,10.20
2018-07-20T04:50:34.141Z,9.83
2018-07-20T04:53:02.307Z,9.80
2018-07-20T04:55:30.493Z,10.80
2018-07-20T04:57:58.741Z,10.40
2018-07-20T05:00:27.041Z,8.60
2018-07-20T05:02:55.300Z,9.30
2018-07-20T05:05:23.471Z,10.10
2018-07-20T05:07:52.564Z,9.30
2018-07-20T05:10:20.738Z,9.57
2018-07-20T05:12:48.889Z,9.90
2018-07-20T05:15:17.070Z,10.40
2018-07-20T05:17:45.258Z,9.33
2018-07-20T05:20:13.518Z,9.20
2018-07-20T05:22:41.686Z,10.03
2018-07-20T05:25:09.855Z,9.40
2018-07-20T05:27:38.018Z,10.00
2018-07-20T05:30:06.318Z,9.40
2018-07-20T05:32:34.555Z,9.57
2018-07-20T05:35:02.678Z,10.33
2018-07-20T05:37:30.848Z,10.00
2018-07-20T05:39:59.150Z,10.70
2018-07-20T05:42:27.405Z,9.83
2018-07-20T05:44:55.705Z,10.57
2018-07-20T05:47:23.888Z,10.90
2018-07-20T05:49:52.129Z,9.83
2018-07-20T05:52:20.301Z,9.57
2018-07-20T05:54:48.813Z,9.43
2018-07-20T05:57:16.993Z,9.70
2018-07-20T05:59:45.237Z,9.00
2018-07-20T06:02:13.937Z,10.07
2018-07-20T06:04:42.117Z,9.60
2018-07-20T06:07:10.365Z,9.70
2018-07-20T06:09:38.667Z,10.20
2018-07-20T06:12:07.244Z,9.93
2018-07-20T06:14:35.449Z,10.50
2018-07-20T06:17:03.630Z,9.67
2018-07-20T06:19:31.784Z,8.20
2018-07-20T06:22:00.105Z,9.60
2018-07-20T06:24:28.298Z,10.23
2018-07-20T06:26:56.476Z,8.60
2018-07-20T06:29:24.655Z,9.37
2018-07-20T06:31:52.828Z,8.87
2018-07-20T06:34:21.097Z,9.03
2018-07-20T06:36:49.254Z,8.90
2018-07-20T06:39:17.442Z,9.83
2018-07-20T06:41:45.749Z,9.73
2018-07-20T06:44:13.918Z,10.33
2018-07-20T06:46:42.090Z,8.77
2018-07-20T06:49:10.253Z,8.70
2018-07-20T06:51:38.525Z,9.00
2018-07-20T06:54:06.705Z,8.50
2018-07-20T06:56:34.890Z,9.93
2018-07-20T06:59:03.057Z,8.93
2018-07-20T07:01:31.229Z,8.57
2018-07-20T07:03:59.493Z,9.27
2018-07-20T07:06:27.667Z,9.20
2018-07-20T07:08:55.841Z,8.23
2018-07-20T07:11:24.057Z,8.57
2018-07-20T07:13:52.218Z,8.27
2018-07-20T07:16:20.481Z,7.57
2018-07-20T07:18:48.640Z,7.33
2018-07-20T07:21:16.812Z,8.90
2018-07-20T07:23:45.088Z,9.03
2018-07-20T07:26:13.738Z,7.70
2018-07-20T07:28:41.950Z,7.73
2018-07-20T07:31:10.134Z,6.80
2018-07-20T07:33:38.330Z,7.50
2018-07-20T07:36:06.576Z,9.00
2018-07-20T07:38:34.822Z,7.40
2018-07-20T07:41:03.035Z,7.77
2018-07-20T07:43:31.206Z,7.50
2018-07-20T07:45:59.378Z,6.67
2018-07-20T07:48:27.540Z,7.37
2018-07-20T07:50:55.702Z,7.33
2018-07-20T07:53:23.908Z,6.83
2018-07-20T07:55:52.177Z,7.63
2018-07-20T07:58:20.341Z,6.70
2018-07-20T08:00:48.543Z,8.23
2018-07-20T08:03:16.710Z,6.80
2018-07-20T08:05:44.871Z,8.40
2018-07-20T08:08:13.573Z,8.90
2018-07-20T08:10:41.833Z,7.80
2018-07-20T08:13:10.021Z,8.37
2018-07-20T08:15:38.342Z,8.07
2018-07-20T08:18:06.585Z,7.57
2018-07-20T08:20:34.745Z,7.80
2018-07-20T08:23:03.327Z,6.97
2018-07-20T08:25:31.473Z,8.33
2018-07-20T08:27:59.668Z,7.40
2018-07-20T08:30:27.871Z,7.53
2018-07-20T08:32:56.037Z,8.60
2018-07-20T08:35:24.278Z,7.53
2018-07-20T08:37:52.474Z,7.73
2018-07-20T08:40:20.734Z,7.47
2018-07-20T08:42:48.902Z,8.50
2018-07-20T08:45:17.102Z,7.20
2018-07-20T08:47:45.261Z,7.40
2018-07-20T08:50:13.530Z,7.87
2018-07-20T08:52:41.698Z,7.40
2018-07-20T08:55:09.882Z,7.90
2018-07-20T08:57:38.046Z,6.77
2018-07-20T09:00:06.946Z,6.90
2018-07-20T09:02:35.116Z,7.30
2018-07-20T09:05:03.570Z,6.80
2018-07-20T09:07:31.778Z,8.10
2018-07-20T09:09:59.978Z,7.50
2018-07-20T09:12:28.214Z,7.33
2018-07-20T09:14:56.404Z,7.53
2018-07-20T09:17:24.628Z,7.47
2018-07-20T09:19:52.778Z,6.40
2018-07-20T09:22:21.026Z,7.50
2018-07-20T09:24:49.190Z,7.20
2018-07-20T09:27:17.381Z,6.50
2018-07-20T09:29:45.679Z,6.50
2018-07-20T09:32:14.075Z,7.27
2018-07-20T09:34:42.341Z,7.10
2018-07-20T09:37:10.529Z,7.20
2018-07-20T09:39:38.757Z,7.00
2018-07-20T09:42:07.050Z,6.13
2018-07-20T09:44:36.564Z,6.50
2018-07-20T09:47:04.949Z,6.47
2018-07-20T09:49:33.115Z,6.00
2018-07-20T09:52:01.362Z,6.20
2018-07-20T09:54:29.539Z,7.30
2018-07-20T09:56:57.704Z,7.30
2018-07-20T09:59:26.204Z,6.60
2018-07-20T10:01:54.372Z,7.20
2018-07-20T10:04:22.652Z,6.10
2018-07-20T10:06:50.926Z,6.57
2018-07-20T10:09:19.186Z,6.53
2018-07-20T10:11:47.354Z,6.00
2018-07-20T10:14:15.538Z,6.00
2018-07-20T10:16:43.810Z,6.00
2018-07-20T10:19:12.426Z,5.83
2018-07-20T10:21:41.005Z,5.80
2018-07-20T10:24:09.255Z,6.53
2018-07-20T10:26:37.434Z,6.20
2018-07-20T10:29:06.232Z,5.50
2018-07-20T10:31:34.408Z,5.37
2018-07-20T10:34:02.662Z,5.00
2018-07-20T10:36:31.591Z,6.43
2018-07-20T10:38:59.842Z,4.77
2018-07-20T10:41:28.009Z,5.10
2018-07-20T10:43:56.193Z,5.67
2018-07-20T10:46:24.377Z,5.20
2018-07-20T10:48:52.657Z,4.97
2018-07-20T10:51:20.831Z,4.67
2018-07-20T10:53:55.703Z,4.87
2018-07-20T10:56:24.406Z,4.93
2018-07-20T10:58:53.176Z,4.80
2018-07-20T11:01:21.421Z,5.33
2018-07-20T11:03:49.886Z,4.83
2018-07-20T11:06:18.870Z,5.80
2018-07-20T11:08:47.036Z,5.07
2018-07-20T11:11:15.291Z,4.40
2018-07-20T11:13:43.653Z,5.10
2018-07-20T11:16:12.022Z,4.60
2018-07-20T11:18:40.269Z,5.00
2018-07-20T11:21:08.450Z,7.60
2018-07-20T11:23:36.700Z,4.70
2018-07-20T11:26:05.069Z,5.00
2018-07-20T11:28:33.351Z,4.13
2018-07-20T11:31:01.658Z,4.87
2018-07-20T11:33:29.837Z,4.50
2018-07-20T11:35:58.023Z,4.43
2018-07-20T11:38:26.247Z,4.93
2018-07-20T11:40:54.525Z,4.43
2018-07-20T11:43:22.712Z,4.60
2018-07-20T11:45:50.882Z,4.53
2018-07-20T11:48:19.175Z,4.20
2018-07-20T11:50:47.342Z,3.83
2018-07-20T11:53:15.572Z,4.17
2018-07-20T11:55:43.781Z,4.87
2018-07-20T11:58:11.942Z,4.40
2018-07-20T12:00:40.114Z,3.93
2018-07-20T12:03:08.410Z,3.93
2018-07-20T12:05:36.878Z,3.80
2018-07-20T12:08:05.146Z,4.57
2018-07-20T12:10:33.329Z,3.83
2018-07-20T12:13:01.490Z,4.50
2018-07-20T12:15:29.657Z,3.83
2018-07-20T12:17:57.849Z,4.03
2018-07-20T12:20:26.078Z,4.70
2018-07-20T12:22:54.341Z,3.60
2018-07-20T12:25:22.545Z,3.70
2018-07-20T12:27:50.736Z,3.70
2018-07-20T12:30:18.913Z,4.53
2018-07-20T12:32:47.093Z,3.77
2018-07-20T12:35:15.277Z,4.50
2018-07-20T12:37:43.541Z,3.80
2018-07-20T12:40:11.763Z,4.50
2018-07-20T12:42:40.030Z,4.20
2018-07-20T12:45:08.378Z,4.90
2018-07-20T12:47:36.557Z,4.45
2018-07-20T12:50:05.557Z,4.42
2018-07-20T12:52:33.829Z,4.53
2018-07-20T12:55:01.989Z,4.12
2018-07-20T12:57:30.218Z,3.80
2018-07-20T12:59:58.437Z,3.20
2018-07-20T13:02:26.620Z,3.70
2018-07-20T13:04:54.879Z,3.90
2018-07-20T13:07:23.389Z,3.90
2018-07-20T13:09:51.582Z,3.60
2018-07-20T13:12:19.784Z,3.65
2018-07-20T13:14:48.109Z,3.87
2018-07-20T13:17:16.281Z,4.42
2018-07-20T13:19:45.114Z,3.62
2018-07-20T13:22:13.322Z,3.70
2018-07-20T13:24:41.524Z,4.10
2018-07-20T13:27:09.780Z,4.12
2018-07-20T13:29:37.963Z,3.60
2018-07-20T13:32:06.299Z,3.40
2018-07-20T13:34:34.459Z,4.50
2018-07-20T13:37:02.613Z,4.22
2018-07-20T13:39:30.916Z,3.70
2018-07-20T13:41:59.145Z,4.17
2018-07-20T13:44:27.424Z,3.90
2018-07-20T13:46:55.724Z,3.92
2018-07-20T13:49:23.966Z,3.90
2018-07-20T13:51:52.153Z,4.08
2018-07-20T13:54:20.325Z,4.15
2018-07-20T13:56:48.480Z,3.40
2018-07-20T13:59:16.653Z,4.97
2018-07-20T14:01:44.832Z,4.12
2018-07-20T14:04:13.002Z,3.55
2018-07-20T14:06:41.166Z,3.50
2018-07-20T14:09:10.470Z,3.33
2018-07-20T14:11:39.019Z,3.85
2018-07-20T14:14:07.613Z,3.62
2018-07-20T14:16:35.847Z,3.40
2018-07-20T14:19:04.498Z,3.80
2018-07-20T14:21:32.790Z,4.03
2018-07-20T14:24:01.074Z,3.55
2018-07-20T14:26:29.359Z,3.90
2018-07-20T14:28:57.473Z,3.77
2018-07-20T14:31:25.824Z,3.90
2018-07-20T14:33:53.961Z,4.05
2018-07-20T14:36:22.218Z,4.03
2018-07-20T14:38:50.411Z,3.80
2018-07-20T14:41:18.683Z,3.98
2018-07-20T14:43:46.845Z,3.22
2018-07-20T14:46:15.039Z,4.12
2018-07-20T14:48:43.205Z,3.77
2018-07-20T14:51:11.860Z,3.72
2018-07-20T14:53:40.057Z,4.10
2018-07-20T14:56:08.241Z,4.20
2018-07-20T14:58:36.429Z,3.87
2018-07-20T15:01:04.671Z,4.47
2018-07-20T15:03:32.857Z,3.98
2018-07-20T15:06:01.347Z,3.85
2018-07-20T15:08:29.607Z,4.07
2018-07-20T15:10:57.881Z,4.45
2018-07-20T15:13:26.022Z,4.33
2018-07-20T15:15:54.214Z,4.15
2018-07-20T15:18:22.394Z,4.60
2018-07-20T15:20:50.550Z,3.95
2018-07-20T15:23:18.846Z,4.28
2018-07-20T15:25:47.083Z,4.25
2018-07-20T15:28:15.298Z,4.28
2018-07-20T15:30:43.601Z,4.20
2018-07-20T15:33:11.845Z,3.95
2018-07-20T15:35:40.032Z,4.22
2018-07-20T15:38:08.246Z,4.23
2018-07-20T15:40:36.373Z,5.30
2018-07-20T15:43:04.549Z,8.05
2018-07-20T15:45:32.802Z,5.10
2018-07-20T15:48:00.965Z,3.80
2018-07-20T15:50:29.135Z,4.05
2018-07-20T15:53:35.788Z,8.30
2018-07-20T15:55:25.597Z,14.18
2018-07-20T15:57:53.996Z,5.75
2018-07-20T16:00:22.261Z,6.70
2018-07-20T16:02:50.430Z,4.10
2018-07-20T16:05:18.597Z,5.07
2018-07-20T16:07:46.850Z,4.80
2018-07-20T16:10:15.198Z,4.60
2018-07-20T16:12:43.362Z,4.50
2018-07-20T16:15:11.656Z,4.90
2018-07-20T16:17:39.828Z,4.57
2018-07-20T16:20:07.990Z,4.80
2018-07-20T16:22:36.226Z,7.43
2018-07-20T16:25:04.758Z,4.87
2018-07-20T16:27:33.040Z,5.70
2018-07-20T16:30:01.349Z,4.00
2018-07-20T16:32:29.556Z,4.63
2018-07-20T16:34:58.022Z,4.83
2018-07-20T16:37:26.194Z,5.17
2018-07-20T16:39:54.386Z,8.90
2018-07-20T16:42:22.560Z,4.53
2018-07-20T16:44:51.209Z,4.47
2018-07-20T16:47:19.502Z,4.73
2018-07-20T16:49:47.709Z,5.17
2018-07-20T16:52:15.970Z,4.90
2018-07-20T16:54:44.142Z,8.27
2018-07-20T16:57:12.877Z,6.50
2018-07-20T16:59:41.065Z,4.83
2018-07-20T17:02:09.469Z,5.83
2018-07-20T17:04:37.732Z,9.57
2018-07-20T17:07:05.942Z,5.37
2018-07-20T17:09:34.125Z,15.00
2018-07-20T17:12:02.318Z,6.07
2018-07-20T17:14:30.509Z,5.23
2018-07-20T17:16:58.674Z,4.93
2018-07-20T17:19:26.840Z,5.63
2018-07-20T17:21:55.026Z,5.67
2018-07-20T17:24:23.201Z,5.07
2018-07-20T17:26:51.385Z,5.50
2018-07-20T17:29:19.577Z,5.57
2018-07-20T17:31:47.761Z,5.27
2018-07-20T17:34:15.941Z,5.63
2018-07-20T17:36:44.145Z,5.43
2018-07-20T17:39:12.956Z,5.60
2018-07-20T17:41:41.439Z,5.00
2018-07-20T17:44:10.138Z,14.20
2018-07-20T17:46:38.677Z,7.50
2018-07-20T17:49:07.140Z,5.60
2018-07-20T17:51:35.418Z,6.10
2018-07-20T17:54:03.639Z,5.77
2018-07-20T17:56:31.866Z,6.10
2018-07-20T17:59:00.055Z,5.60
2018-07-20T18:01:28.249Z,5.53
2018-07-20T18:03:56.451Z,10.10
2018-07-20T18:06:24.937Z,20.80
2018-07-20T18:08:53.201Z,14.10
2018-07-20T18:11:21.766Z,9.47
2018-07-20T18:13:49.978Z,7.33
2018-07-20T18:16:18.180Z,9.10
2018-07-20T18:18:46.442Z,8.30
2018-07-20T18:21:14.743Z,5.60
2018-07-20T18:23:42.996Z,5.27
2018-07-20T18:26:11.269Z,6.30
2018-07-20T18:28:39.573Z,5.77
2018-07-20T18:31:07.824Z,6.00
2018-07-20T18:33:36.225Z,5.83
2018-07-20T18:36:04.783Z,5.87
2018-07-20T18:38:32.968Z,6.27
2018-07-20T18:41:01.298Z,5.80
2018-07-20T18:43:29.794Z,6.80
2018-07-20T18:45:58.806Z,5.83
2018-07-20T18:48:27.206Z,6.10
2018-07-20T18:50:55.474Z,6.10
2018-07-20T18:53:23.654Z,6.00
2018-07-20T18:55:51.857Z,9.90
2018-07-20T18:58:20.202Z,6.70
2018-07-20T19:00:48.386Z,6.53
2018-07-20T19:03:16.801Z,7.40
2018-07-20T19:05:45.022Z,5.73
2018-07-20T19:08:13.284Z,5.80
2018-07-20T19:10:41.517Z,6.00
2018-07-20T19:13:10.373Z,6.13
2018-07-20T19:15:38.585Z,6.50
2018-07-20T19:18:06.914Z,7.00
2018-07-20T19:20:35.239Z,6.60
2018-07-20T19:23:03.653Z,6.57
2018-07-20T19:25:31.834Z,6.83
2018-07-20T19:28:00.083Z,6.17
2018-07-20T19:30:29.052Z,6.00
2018-07-20T19:32:57.202Z,6.00
2018-07-20T19:35:25.465Z,7.37
2018-07-20T19:37:53.638Z,6.50
2018-07-20T19:40:22.017Z,6.53
2018-07-20T19:42:50.158Z,7.27
2018-07-20T19:45:18.382Z,6.50
2018-07-20T19:47:46.620Z,7.10
2018-07-20T19:50:14.800Z,27.27
2018-07-20T19:52:43.072Z,12.80
2018-07-20T19:55:11.280Z,11.37
2018-07-20T20:00:18.986Z,9.60
2018-07-20T20:02:47.209Z,8.80
2018-07-20T20:05:15.381Z,6.60
2018-07-20T20:07:43.574Z,7.00
2018-07-20T20:10:11.758Z,7.03
2018-07-20T20:12:39.946Z,6.60
2018-07-20T20:15:08.569Z,6.80
2018-07-20T20:17:36.733Z,6.87
2018-07-20T20:20:07.735Z,7.53
2018-07-20T20:22:35.970Z,7.67
2018-07-20T20:25:04.147Z,8.10
2018-07-20T20:27:32.317Z,7.50
2018-07-20T20:30:00.545Z,7.40
2018-07-20T20:32:28.805Z,7.60
2018-07-20T20:34:56.981Z,8.13
2018-07-20T20:37:25.220Z,6.60
2018-07-20T20:39:53.405Z,6.97
2018-07-20T20:42:21.743Z,7.10
2018-07-20T20:44:50.186Z,6.70
2018-07-20T20:47:18.394Z,7.53
2018-07-20T20:49:46.672Z,6.40
2018-07-20T20:52:14.917Z,7.60
2018-07-20T20:54:43.150Z,7.13
2018-07-20T20:57:11.350Z,7.50
2018-07-20T20:59:39.534Z,7.37
2018-07-20T21:02:07.699Z,6.83
2018-07-20T21:04:35.848Z,6.90
2018-07-20T21:07:04.062Z,7.10
2018-07-20T21:09:32.222Z,7.43
2018-07-20T21:12:00.495Z,7.60
2018-07-20T21:14:28.586Z,7.23
2018-07-20T21:16:56.778Z,7.37
2018-07-20T21:19:24.990Z,6.63
2018-07-20T21:21:53.209Z,7.27
2018-07-20T21:24:21.379Z,7.00
2018-07-20T21:26:49.557Z,7.50
2018-07-20T21:29:17.790Z,6.90
2018-07-20T21:31:45.981Z,7.53
2018-07-20T21:34:14.151Z,8.50
2018-07-20T21:36:42.386Z,7.57
2018-07-20T21:39:12.315Z,7.27
2018-07-20T21:41:41.095Z,7.00
2018-07-20T21:44:09.540Z,8.30
2018-07-20T21:46:37.950Z,7.60
2018-07-20T21:49:06.128Z,7.10
2018-07-20T21:51:34.316Z,7.47
2018-07-20T21:54:02.495Z,6.90
2018-07-20T21:56:30.846Z,7.33
2018-07-20T21:58:59.050Z,6.97
2018-07-20T22:01:27.329Z,7.37
2018-07-20T22:03:55.487Z,7.30
2018-07-20T22:06:23.666Z,7.30
2018-07-20T22:08:51.875Z,8.20
2018-07-20T22:11:20.130Z,7.63
2018-07-20T22:13:48.501Z,7.60
2018-07-20T22:16:16.772Z,7.50
2018-07-20T22:18:44.942Z,7.60
2018-07-20T22:21:13.147Z,7.87
2018-07-20T22:23:41.578Z,7.30
2018-07-20T22:26:10.054Z,8.10
2018-07-20T22:28:38.411Z,7.97
2018-07-20T22:31:06.725Z,7.47
2018-07-20T22:33:34.925Z,8.77
2018-07-20T22:36:03.101Z,8.50
2018-07-20T22:38:31.293Z,7.77
2018-07-20T22:40:59.565Z,9.30
2018-07-20T22:43:27.736Z,9.30
2018-07-20T22:45:55.918Z,7.93
2018-07-20T22:48:24.073Z,8.70
2018-07-20T22:50:52.312Z,9.37
2018-07-20T22:53:20.471Z,8.50
2018-07-20T22:55:48.648Z,9.00
2018-07-20T22:58:16.836Z,8.97
2018-07-20T23:00:45.001Z,9.93
2018-07-20T23:03:13.252Z,9.13
2018-07-20T23:05:41.413Z,9.80
2018-07-20T23:08:09.786Z,9.10
2018-07-20T23:10:37.956Z,9.00
2018-07-20T23:13:06.126Z,9.20
2018-07-20T23:15:34.290Z,10.13
2018-07-20T23:18:02.466Z,8.90
2018-07-20T23:20:30.625Z,9.03
2018-07-20T23:22:58.778Z,9.30
2018-07-20T23:25:27.082Z,9.23
2018-07-20T23:27:55.253Z,9.40
2018-07-20T23:30:23.498Z,9.23
2018-07-20T23:32:51.670Z,9.57
2018-07-20T23:35:19.841Z,10.07
2018-07-20T23:37:48.029Z,10.43
2018-07-20T23:40:16.200Z,9.97
2018-07-20T23:42:44.365Z,10.43
2018-07-20T23:45:12.560Z,11.50
2018-07-20T23:47:40.741Z,10.67
2018-07-20T23:50:08.916Z,11.93
2018-07-20T23:52:37.085Z,11.57
2018-07-20T23:55:06.073Z,10.13
2018-07-20T23:57:34.252Z,10.10
